Brunswick Golden Isles Airport
KBQK : now visible

Airfield :











YOU CAN JOIN US ON...

 
LOGIN :

Register | Disclaimer

   EN    FR    IT 

 









Legend :    VFR   Marginal VFR   IFR   Intensive IFR   Very Intensive IFR
Visi :
Ceiling :
>= 8 km
>= 3000ft
5 to 8 km
1000 to 3000 ft
1500m to 5 km
500 to 1000 ft
800 to 1500m
200 to 500 ft
< 800m
< 200 ft
Symbols :   Thunderstorms  Fog  Heavy snow  Heavy precipitations  Wind > 20 kt






- Airport Elevation : 26 ft
- IATA code : BQK


KBQK - Brunswick Golden Isles

CURRENT METAR :
  • 041555Z AUTO 35006KT 10SM OVC018 26/22 A3001 RMK AO2 T02550217

EXPIRED METARs :
  • 041535Z AUTO 34007KT 10SM SCT012 BKN018 25/22 A3001 RMK AO2 T02530216
  • 041515Z AUTO 34006KT 10SM BKN012 BKN018 25/22 A3000 RMK AO2 T02470217
  • 041435Z AUTO 34006KT 10SM OVC010 24/22 A3000 RMK AO2 LTG DSNT E T02440223
  • 041415Z AUTO 33005KT 10SM OVC008 24/22 A3000 RMK AO2 LTG DSNT W T02390221
  • 041355Z AUTO 33004KT 10SM BKN008 OVC020 23/22 A3000 RMK AO2 T02340220
  • 041335Z AUTO 36005KT 10SM SCT008 OVC020 23/22 A2999 RMK AO2 LTG DSNT SW T02340220
  • 041315Z AUTO 35005KT 10SM BKN006 OVC022 23/22 A2999 RMK AO2 LTG DSNT W T02310222

TAF N/A
KZJX FIR / North America



MET'MAP, your aeronautical weather chart ! - Copyright ORBIFLY December 2007 - Disclaimer

ORBIFLY MET'MAP TEAM :

Programming & Development : Alexandra Zaïnal
Concept & original design : Baudouin d'Aumeries
Assistance for programming : Marc-Olivier Méhu
Technical & hardware support : Manuel Goepfert

Contact : metmap@orbifly.com




SOURCES & CREDITS :

   NOAA       Earth
Advisory